METAR Data
IDs: Format: Raw Decoded Include TAF

Data at: 1359 UTC 27 Nov 2021

METAR for:KBNA (Nashville Intl, TN, US)
Text:KBNA 271353Z 19006KT 10SM CLR 01/M04 A3013 RMK AO2 SLP209 T00111044 $
Temperature: 1.1°C ( 34°F)
Dewpoint: -4.4°C ( 24°F) [RH = 67%]
Pressure (altimeter):30.13 inches Hg (1020.4 mb) [Sea level pressure: 1020.9 mb]
Winds:from the S (190 degrees) at 7 MPH (6 knots; 3.1 m/s)
Visibility:10 or more sm (16+ km)
Ceiling:at least 12,000 feet AGL
Clouds:sky clear below 12,000 feet AGL
QC Flag:SOME DATA ABOVE MAY BE INACCURATE!!!"$" is an indication the sensor requires maintenance.
Text:KBNA 271253Z 18006KT 10SM CLR M02/M07 A3014 RMK AO2 SLP210 T10221067 $
Temperature: -2.2°C ( 28°F)
Dewpoint: -6.7°C ( 20°F) [RH = 71%]
Pressure (altimeter):30.14 inches Hg (1020.7 mb) [Sea level pressure: 1021.0 mb]
Winds:from the S (180 degrees) at 7 MPH (6 knots; 3.1 m/s)
Visibility:10 or more sm (16+ km)
Ceiling:at least 12,000 feet AGL
Clouds:sky clear below 12,000 feet AGL
QC Flag:SOME DATA ABOVE MAY BE INACCURATE!!!"$" is an indication the sensor requires maintenance.
Text:KBNA 271153Z 18006KT 10SM CLR M03/M07 A3014 RMK AO2 SLP211 T10331067 11011 21033 53000 $
Temperature: -3.3°C ( 26°F)
Dewpoint: -6.7°C ( 20°F) [RH = 77%]
Pressure (altimeter):30.14 inches Hg (1020.7 mb) [Sea level pressure: 1021.1 mb]
Winds:from the S (180 degrees) at 7 MPH (6 knots; 3.1 m/s)
Visibility:10 or more sm (16+ km)
Ceiling:at least 12,000 feet AGL
Clouds:sky clear below 12,000 feet AGL
QC Flag:SOME DATA ABOVE MAY BE INACCURATE!!!"$" is an indication the sensor requires maintenance.